createdAt,value
2022-11-16T00:00:16.091Z,95.41
2022-11-16T00:03:06.088Z,95.59
2022-11-16T00:05:37.819Z,95.71
2022-11-16T00:08:09.652Z,95.80
2022-11-16T00:10:41.416Z,95.67
2022-11-16T00:13:13.309Z,95.46
2022-11-16T00:15:45.167Z,95.69
2022-11-16T00:18:16.987Z,95.51
2022-11-16T00:20:48.804Z,95.40
2022-11-16T00:23:20.785Z,95.32
2022-11-16T00:25:53.427Z,95.61
2022-11-16T00:28:25.223Z,95.51
2022-11-16T00:31:01.940Z,95.62
2022-11-16T00:33:34.439Z,95.46
2022-11-16T00:36:08.755Z,95.67
2022-11-16T00:38:40.806Z,95.68
2022-11-16T00:41:12.883Z,95.68
2022-11-16T00:43:45.337Z,95.74
2022-11-16T00:46:17.342Z,95.50
2022-11-16T00:48:49.325Z,95.67
2022-11-16T00:51:21.330Z,95.71
2022-11-16T00:53:53.303Z,95.67
2022-11-16T00:56:27.006Z,95.51
2022-11-16T00:59:05.786Z,95.44
2022-11-16T01:01:37.632Z,95.72
2022-11-16T01:04:09.646Z,95.56
2022-11-16T01:06:41.415Z,95.71
2022-11-16T01:09:13.554Z,95.59
2022-11-16T01:12:03.903Z,95.48
2022-11-16T01:14:40.347Z,95.47
2022-11-16T01:17:12.277Z,95.55
2022-11-16T01:19:46.660Z,95.24
2022-11-16T01:22:18.599Z,95.49
2022-11-16T01:24:53.693Z,95.27
2022-11-16T01:27:26.164Z,95.32
2022-11-16T01:29:58.485Z,95.32
2022-11-16T01:32:30.231Z,95.17
2022-11-16T01:35:04.132Z,95.43
2022-11-16T01:37:41.542Z,95.55
2022-11-16T01:40:17.883Z,95.51
2022-11-16T01:42:51.305Z,95.65
2022-11-16T01:45:31.820Z,95.45
2022-11-16T01:48:03.820Z,95.21
2022-11-16T01:50:35.738Z,95.17
2022-11-16T01:53:08.827Z,95.23
2022-11-16T01:55:41.684Z,95.15
2022-11-16T01:58:17.275Z,95.30
2022-11-16T02:00:52.788Z,95.29
2022-11-16T02:03:29.409Z,95.11
2022-11-16T02:06:22.291Z,95.18
2022-11-16T02:09:25.860Z,95.17
2022-11-16T02:12:10.304Z,95.10
2022-11-16T02:14:57.083Z,94.94
2022-11-16T02:17:37.040Z,95.17
2022-11-16T02:20:39.236Z,94.92
2022-11-16T02:23:25.572Z,95.33
2022-11-16T02:26:06.015Z,95.02
2022-11-16T02:28:50.816Z,95.05
2022-11-16T02:31:27.233Z,94.98
2022-11-16T02:34:00.526Z,95.03
2022-11-16T02:36:33.756Z,94.87
2022-11-16T02:39:09.237Z,94.90
2022-11-16T02:41:44.094Z,94.80
2022-11-16T02:44:18.871Z,94.74
2022-11-16T02:46:54.952Z,94.72
2022-11-16T02:49:27.852Z,94.71
2022-11-16T02:52:00.520Z,94.59
2022-11-16T02:54:32.180Z,94.85
2022-11-16T02:57:27.450Z,94.53
2022-11-16T03:00:05.455Z,94.52
2022-11-16T03:02:41.305Z,95.12
2022-11-16T03:05:16.423Z,94.88
2022-11-16T03:07:50.579Z,94.66
2022-11-16T03:10:37.009Z,94.80
2022-11-16T03:13:10.107Z,94.75
2022-11-16T03:15:43.922Z,94.69
2022-11-16T03:18:17.747Z,94.70
2022-11-16T03:20:48.669Z,94.76
2022-11-16T03:23:20.878Z,94.75
2022-11-16T03:25:58.480Z,94.64
2022-11-16T03:28:41.094Z,94.71
2022-11-16T03:31:16.723Z,94.69
2022-11-16T03:33:57.764Z,94.42
2022-11-16T03:36:36.901Z,94.29
2022-11-16T03:39:13.987Z,94.37
2022-11-16T03:41:47.061Z,94.62
2022-11-16T03:44:20.308Z,94.47
2022-11-16T03:46:52.244Z,94.22
2022-11-16T03:49:25.443Z,94.16
2022-11-16T03:51:57.484Z,94.46
2022-11-16T03:54:29.595Z,94.48
2022-11-16T03:57:02.038Z,94.75
2022-11-16T03:59:33.874Z,94.47
2022-11-16T04:02:06.326Z,94.53
2022-11-16T04:04:55.639Z,94.52
2022-11-16T04:07:45.309Z,94.73
2022-11-16T04:10:37.349Z,94.52
2022-11-16T04:13:31.123Z,94.52
2022-11-16T04:16:22.527Z,94.66
2022-11-16T04:19:24.166Z,94.46
2022-11-16T04:22:17.422Z,94.51
2022-11-16T04:24:52.945Z,94.48
2022-11-16T04:27:56.920Z,94.42
2022-11-16T04:30:51.066Z,94.24
2022-11-16T04:33:45.115Z,94.79
2022-11-16T04:36:35.528Z,94.50
2022-11-16T04:39:08.048Z,94.58
2022-11-16T04:41:57.588Z,94.45
2022-11-16T04:44:49.609Z,94.49
2022-11-16T04:47:21.848Z,94.40
2022-11-16T04:49:58.008Z,94.40
2022-11-16T04:52:30.277Z,94.45
2022-11-16T04:55:02.531Z,94.27
2022-11-16T04:57:34.428Z,94.16
2022-11-16T05:00:12.052Z,94.36
2022-11-16T05:02:47.087Z,94.38
2022-11-16T05:05:19.854Z,94.41
2022-11-16T05:07:52.239Z,94.52
2022-11-16T05:10:24.647Z,94.49
2022-11-16T05:12:56.544Z,94.47
2022-11-16T05:15:28.475Z,94.44
2022-11-16T05:18:00.467Z,94.60
2022-11-16T05:20:58.517Z,94.38
2022-11-16T05:23:48.121Z,94.89
2022-11-16T05:26:20.035Z,94.99
2022-11-16T05:28:51.908Z,95.06
2022-11-16T05:31:24.055Z,95.00
2022-11-16T05:33:56.737Z,95.15
2022-11-16T05:36:29.124Z,94.98
2022-11-16T05:39:03.747Z,94.99
2022-11-16T05:41:35.739Z,94.78
2022-11-16T05:44:08.335Z,95.19
2022-11-16T05:46:41.339Z,95.27
2022-11-16T05:49:12.981Z,95.34
2022-11-16T05:51:49.897Z,95.37
2022-11-16T05:54:24.848Z,95.01
2022-11-16T05:56:58.499Z,95.28
2022-11-16T05:59:30.507Z,95.50
2022-11-16T06:02:05.117Z,95.28
2022-11-16T06:04:37.092Z,95.02
2022-11-16T06:07:11.836Z,94.95
2022-11-16T06:09:44.829Z,95.39
2022-11-16T06:12:17.346Z,95.41
2022-11-16T06:14:49.461Z,95.19
2022-11-16T06:17:21.394Z,95.47
2022-11-16T06:19:53.462Z,95.70
2022-11-16T06:22:25.216Z,95.49
2022-11-16T06:24:57.916Z,95.30
2022-11-16T06:27:29.690Z,95.44
2022-11-16T06:30:01.932Z,95.44
2022-11-16T06:32:33.869Z,95.40
2022-11-16T06:35:06.034Z,95.28
2022-11-16T06:37:37.963Z,95.62
2022-11-16T06:40:12.225Z,95.49
2022-11-16T06:42:42.848Z,95.48
2022-11-16T06:45:14.969Z,95.49
2022-11-16T06:47:49.183Z,95.54
2022-11-16T06:50:21.642Z,95.34
2022-11-16T06:52:54.162Z,95.31
2022-11-16T06:55:26.204Z,95.19
2022-11-16T06:57:58.373Z,95.15
2022-11-16T07:00:30.779Z,95.35
2022-11-16T07:03:05.027Z,95.22
2022-11-16T07:05:40.059Z,95.43
2022-11-16T07:08:12.133Z,95.10
2022-11-16T07:10:43.779Z,95.36
2022-11-16T07:13:15.479Z,95.53
2022-11-16T07:15:47.552Z,95.62
2022-11-16T07:18:19.230Z,95.35
2022-11-16T07:20:53.255Z,95.41
2022-11-16T07:23:24.935Z,95.35
2022-11-16T07:25:56.767Z,95.22
2022-11-16T07:28:28.702Z,95.68
2022-11-16T07:31:03.660Z,95.70
2022-11-16T07:33:35.902Z,95.58
2022-11-16T07:36:11.931Z,95.60
2022-11-16T07:38:44.091Z,96.03
2022-11-16T07:41:17.725Z,96.59
2022-11-16T07:43:52.976Z,96.19
2022-11-16T07:46:45.880Z,96.00
2022-11-16T07:49:19.017Z,96.28
2022-11-16T07:51:50.828Z,96.68
2022-11-16T07:54:26.676Z,96.27
2022-11-16T07:56:59.632Z,96.50
2022-11-16T07:59:31.660Z,95.92
2022-11-16T08:02:03.891Z,96.04
2022-11-16T08:04:35.912Z,96.26
2022-11-16T08:07:08.827Z,96.39
2022-11-16T08:09:41.607Z,96.45
2022-11-16T08:12:14.141Z,96.30
2022-11-16T08:14:47.085Z,96.53
2022-11-16T08:17:19.644Z,96.47
2022-11-16T08:19:53.465Z,96.40
2022-11-16T08:22:27.210Z,96.23
2022-11-16T08:24:59.700Z,96.55
2022-11-16T08:27:37.347Z,96.62
2022-11-16T08:30:16.743Z,96.47
2022-11-16T08:32:49.257Z,96.86
2022-11-16T08:35:24.713Z,96.89
2022-11-16T08:41:15.504Z,96.86
2022-11-16T08:43:50.672Z,96.55
2022-11-16T08:46:34.402Z,96.72
2022-11-16T08:49:15.678Z,97.02
2022-11-16T08:51:48.613Z,96.97
2022-11-16T08:54:24.672Z,96.77
2022-11-16T08:57:00.453Z,96.69
2022-11-16T08:59:34.449Z,97.29
2022-11-16T09:02:06.434Z,97.31
2022-11-16T09:04:38.357Z,96.94
2022-11-16T09:07:12.957Z,97.23
2022-11-16T09:09:47.764Z,97.14
2022-11-16T09:12:22.340Z,96.65
2022-11-16T09:14:55.342Z,96.83
2022-11-16T09:17:27.668Z,96.82
2022-11-16T09:20:07.290Z,96.68
2022-11-16T09:22:48.741Z,96.54
2022-11-16T09:25:25.299Z,96.35
2022-11-16T09:27:59.431Z,96.28
2022-11-16T09:30:34.605Z,96.19
2022-11-16T09:33:06.896Z,96.24
2022-11-16T09:35:41.767Z,96.50
2022-11-16T09:38:22.096Z,96.41
2022-11-16T09:41:11.713Z,96.58
2022-11-16T09:43:57.270Z,96.51
2022-11-16T09:46:33.165Z,96.78
2022-11-16T09:49:17.633Z,97.15
2022-11-16T09:51:54.894Z,96.91
2022-11-16T09:54:29.487Z,96.74
2022-11-16T09:57:07.939Z,96.82
2022-11-16T09:59:44.834Z,96.65
2022-11-16T10:02:23.733Z,96.26
2022-11-16T10:05:01.941Z,96.56
2022-11-16T10:07:37.253Z,96.51
2022-11-16T10:10:15.899Z,96.30
2022-11-16T10:12:52.593Z,96.06
2022-11-16T10:15:39.573Z,96.19
2022-11-16T10:18:23.639Z,96.23
2022-11-16T10:21:09.967Z,95.95
2022-11-16T10:23:54.606Z,95.61
2022-11-16T10:26:33.086Z,95.58
2022-11-16T10:29:18.239Z,95.53
2022-11-16T10:32:13.275Z,95.46
2022-11-16T10:34:53.690Z,94.71
2022-11-16T10:37:29.957Z,94.76
2022-11-16T10:40:11.305Z,93.88
2022-11-16T10:42:43.185Z,94.32
2022-11-16T10:45:21.342Z,94.29
2022-11-16T10:47:58.413Z,94.01
2022-11-16T10:50:41.340Z,93.28
2022-11-16T10:53:16.794Z,93.69
2022-11-16T10:55:54.122Z,93.98
2022-11-16T10:58:26.065Z,94.10
2022-11-16T11:00:59.334Z,94.12
2022-11-16T11:03:34.441Z,93.75
2022-11-16T11:06:13.962Z,93.40
2022-11-16T11:08:45.970Z,93.40
2022-11-16T11:11:42.694Z,92.88
2022-11-16T11:14:19.609Z,92.71
2022-11-16T11:16:55.331Z,92.56
2022-11-16T11:19:31.019Z,91.75
2022-11-16T11:22:07.391Z,90.82
2022-11-16T11:24:45.282Z,91.66
2022-11-16T11:27:24.997Z,91.88
2022-11-16T11:29:59.182Z,91.91
2022-11-16T11:32:35.396Z,91.46
2022-11-16T11:35:15.585Z,91.05
2022-11-16T11:37:51.740Z,91.65
2022-11-16T11:40:25.767Z,91.55
2022-11-16T11:43:02.841Z,91.65
2022-11-16T11:45:44.889Z,92.00
2022-11-16T11:48:31.265Z,91.31
2022-11-16T11:51:11.510Z,91.14
2022-11-16T11:53:48.316Z,90.64
2022-11-16T11:56:24.175Z,90.63
2022-11-16T11:58:56.691Z,90.74
2022-11-16T12:01:56.376Z,90.62
2022-11-16T12:04:53.203Z,90.78
2022-11-16T12:07:35.993Z,90.88
2022-11-16T12:10:16.015Z,90.81
2022-11-16T12:13:03.818Z,90.90
2022-11-16T12:15:59.806Z,90.49
2022-11-16T12:18:53.045Z,90.81
2022-11-16T12:21:42.665Z,90.92
2022-11-16T12:24:25.300Z,90.76
2022-11-16T12:27:07.724Z,90.84
2022-11-16T12:29:46.441Z,90.78
2022-11-16T12:32:41.348Z,90.58
2022-11-16T12:35:22.464Z,89.52
2022-11-16T12:38:00.856Z,89.74
2022-11-16T12:40:43.146Z,90.35
2022-11-16T12:43:20.454Z,90.37
2022-11-16T12:46:00.101Z,90.56
2022-11-16T12:49:03.896Z,90.61
2022-11-16T12:51:45.893Z,90.73
2022-11-16T12:54:37.080Z,90.70
2022-11-16T12:57:21.347Z,90.73
2022-11-16T13:00:06.395Z,90.39
2022-11-16T13:02:51.627Z,90.46
2022-11-16T13:05:26.612Z,90.53
2022-11-16T13:08:03.381Z,90.51
2022-11-16T13:10:43.100Z,90.62
2022-11-16T13:13:35.881Z,90.87
2022-11-16T13:16:15.705Z,90.85
2022-11-16T13:18:48.146Z,91.15
2022-11-16T13:21:39.104Z,91.20
2022-11-16T13:24:25.492Z,91.54
2022-11-16T13:27:17.881Z,91.61
2022-11-16T13:30:00.197Z,91.80
2022-11-16T13:32:48.786Z,91.95
2022-11-16T13:35:21.142Z,91.93
2022-11-16T13:37:53.710Z,92.04
2022-11-16T13:40:31.887Z,92.23
2022-11-16T13:43:18.830Z,92.18
2022-11-16T13:46:01.473Z,92.31
2022-11-16T13:48:36.383Z,92.39
2022-11-16T13:51:19.356Z,92.37
2022-11-16T13:56:52.659Z,92.61
2022-11-16T13:59:29.188Z,92.17
2022-11-16T14:02:04.935Z,92.29
2022-11-16T14:04:44.211Z,92.39
2022-11-16T14:07:43.361Z,92.34
2022-11-16T14:10:51.344Z,92.37
2022-11-16T14:13:47.351Z,91.56
2022-11-16T14:16:45.993Z,91.64
2022-11-16T14:19:58.172Z,91.75
2022-11-16T14:22:45.655Z,91.52
2022-11-16T14:25:32.075Z,91.52
2022-11-16T14:28:15.362Z,91.41
2022-11-16T14:31:00.684Z,91.55
2022-11-16T14:33:35.392Z,91.60
2022-11-16T14:36:11.020Z,91.75
2022-11-16T14:38:45.097Z,91.75
2022-11-16T14:41:30.748Z,91.75
2022-11-16T14:44:03.157Z,91.74
2022-11-16T14:46:40.337Z,91.77
2022-11-16T14:49:17.247Z,91.89
2022-11-16T14:51:51.587Z,91.76
2022-11-16T14:54:34.056Z,91.63
2022-11-16T14:57:08.610Z,91.98
2022-11-16T14:59:54.680Z,91.69
2022-11-16T15:02:30.031Z,91.80
2022-11-16T15:05:03.528Z,91.75
2022-11-16T15:07:35.926Z,92.04
2022-11-16T15:10:14.118Z,91.92
2022-11-16T15:12:51.620Z,91.80
2022-11-16T15:15:27.793Z,92.04
2022-11-16T15:18:13.079Z,92.25
2022-11-16T15:20:53.123Z,92.23
2022-11-16T15:23:30.460Z,92.45
2022-11-16T15:26:04.753Z,92.76
2022-11-16T15:28:39.673Z,92.74
2022-11-16T15:31:15.948Z,92.78
2022-11-16T15:33:50.541Z,92.43
2022-11-16T15:36:45.421Z,92.57
2022-11-16T15:39:21.589Z,92.74
2022-11-16T15:42:02.145Z,92.75
2022-11-16T15:44:36.442Z,92.52
2022-11-16T15:47:08.790Z,92.69
2022-11-16T15:49:42.790Z,92.53
2022-11-16T15:52:18.341Z,92.62
2022-11-16T15:55:05.689Z,92.43
2022-11-16T15:57:45.501Z,92.60
2022-11-16T16:00:32.719Z,92.58
2022-11-16T16:03:11.828Z,92.58
2022-11-16T16:05:44.724Z,92.54
2022-11-16T16:08:38.591Z,92.57
2022-11-16T16:11:30.199Z,92.71
2022-11-16T16:14:05.260Z,92.79
2022-11-16T16:16:37.826Z,92.79
2022-11-16T16:19:36.527Z,92.81
2022-11-16T16:22:53.903Z,93.13
2022-11-16T16:25:33.364Z,93.10
2022-11-16T16:28:15.842Z,93.45
2022-11-16T16:30:48.782Z,93.23
2022-11-16T16:33:22.943Z,93.30
2022-11-16T16:35:55.332Z,93.43
2022-11-16T16:38:35.938Z,93.56
2022-11-16T16:41:21.169Z,93.33
2022-11-16T16:43:56.449Z,93.41
2022-11-16T16:46:28.192Z,93.19
2022-11-16T16:49:01.389Z,93.15
2022-11-16T16:51:40.400Z,93.06
2022-11-16T16:54:34.828Z,92.88
2022-11-16T16:57:16.510Z,92.97
2022-11-16T16:59:51.700Z,92.72
2022-11-16T17:02:27.703Z,92.73
2022-11-16T17:05:05.055Z,92.72
2022-11-16T17:07:37.465Z,92.29
2022-11-16T17:10:11.140Z,92.22
2022-11-16T17:12:42.990Z,92.07
2022-11-16T17:15:19.503Z,91.84
2022-11-16T17:17:52.654Z,91.95
2022-11-16T17:20:25.406Z,91.89
2022-11-16T17:22:59.601Z,92.10
2022-11-16T17:25:33.389Z,92.16
2022-11-16T17:28:11.781Z,91.42
2022-11-16T17:30:44.435Z,90.77
2022-11-16T17:33:16.583Z,90.74
2022-11-16T17:36:03.121Z,90.70
2022-11-16T17:38:36.387Z,90.58
2022-11-16T17:41:12.761Z,90.81
2022-11-16T17:43:47.131Z,90.32
2022-11-16T17:46:21.559Z,90.34
2022-11-16T17:48:54.685Z,90.54
2022-11-16T17:51:34.073Z,90.26
2022-11-16T17:54:15.070Z,90.32
2022-11-16T17:56:48.612Z,90.31
2022-11-16T17:59:33.389Z,90.33
2022-11-16T18:02:12.801Z,90.30
2022-11-16T18:04:50.931Z,90.38
2022-11-16T18:07:23.980Z,90.53
2022-11-16T18:09:58.211Z,90.70
2022-11-16T18:12:30.349Z,90.53
2022-11-16T18:17:55.348Z,90.60
2022-11-16T18:20:42.874Z,90.68
2022-11-16T18:23:41.425Z,90.50
2022-11-16T18:26:20.852Z,90.49
2022-11-16T18:29:13.340Z,90.53
2022-11-16T18:31:51.957Z,90.69
2022-11-16T18:34:32.410Z,90.58
2022-11-16T18:37:06.636Z,90.59
2022-11-16T18:39:41.575Z,90.32
2022-11-16T18:42:23.120Z,90.56
2022-11-16T18:44:58.388Z,90.55
2022-11-16T18:47:30.403Z,89.88
2022-11-16T18:50:06.197Z,90.02
2022-11-16T18:52:38.140Z,90.06
2022-11-16T18:55:11.336Z,90.37
2022-11-16T18:57:48.340Z,90.34
2022-11-16T19:00:25.495Z,90.41
2022-11-16T19:03:09.988Z,90.37
2022-11-16T19:05:46.319Z,90.36
2022-11-16T19:08:37.868Z,90.01
2022-11-16T19:11:14.176Z,90.25
2022-11-16T19:13:49.511Z,89.92
2022-11-16T19:16:23.645Z,89.94
2022-11-16T19:19:27.601Z,90.13
2022-11-16T19:22:15.173Z,90.01
2022-11-16T19:24:53.283Z,89.88
2022-11-16T19:27:42.410Z,89.80
2022-11-16T19:30:25.884Z,89.79
2022-11-16T19:35:56.644Z,89.69
2022-11-16T19:38:35.707Z,89.40
2022-11-16T19:41:16.538Z,89.56
2022-11-16T19:44:00.578Z,89.74
2022-11-16T19:47:07.845Z,89.64
2022-11-16T19:49:48.599Z,89.68
2022-11-16T19:52:23.851Z,89.56
2022-11-16T19:55:08.616Z,89.22
2022-11-16T19:58:00.012Z,89.32
2022-11-16T20:00:36.259Z,89.42
2022-11-16T20:03:09.676Z,89.66
2022-11-16T20:05:48.632Z,89.41
2022-11-16T20:08:22.038Z,89.61
2022-11-16T20:11:00.109Z,89.29
2022-11-16T20:13:34.436Z,89.37
2022-11-16T20:16:12.803Z,89.54
2022-11-16T20:19:01.934Z,89.41
2022-11-16T20:21:42.845Z,89.23
2022-11-16T20:24:17.079Z,89.70
2022-11-16T20:26:51.263Z,89.67
2022-11-16T20:29:21.919Z,89.69
2022-11-16T20:31:54.175Z,89.58
2022-11-16T20:34:26.129Z,89.16
2022-11-16T20:36:58.703Z,89.23
2022-11-16T20:39:36.871Z,89.39
2022-11-16T20:42:13.241Z,89.22
2022-11-16T20:44:48.555Z,89.25
2022-11-16T20:47:20.673Z,89.30
2022-11-16T20:49:52.540Z,89.22
2022-11-16T20:52:24.830Z,89.19
2022-11-16T20:54:59.156Z,89.09
2022-11-16T20:57:32.156Z,89.31
2022-11-16T21:00:05.395Z,89.23
2022-11-16T21:02:37.529Z,89.15
2022-11-16T21:05:10.520Z,88.94
2022-11-16T21:07:44.453Z,89.08
2022-11-16T21:10:20.713Z,89.17
2022-11-16T21:13:22.402Z,89.11
2022-11-16T21:16:01.907Z,89.19
2022-11-16T21:18:35.857Z,88.26
2022-11-16T21:21:09.568Z,88.06
2022-11-16T21:23:50.229Z,88.07
2022-11-16T21:26:38.273Z,88.18
2022-11-16T21:29:13.062Z,87.74
2022-11-16T21:31:45.375Z,87.72
2022-11-16T21:34:18.868Z,87.79
2022-11-16T21:36:53.308Z,88.15
2022-11-16T21:39:25.462Z,87.87
2022-11-16T21:42:02.610Z,88.04
2022-11-16T21:44:45.820Z,87.87
2022-11-16T21:47:20.763Z,87.85
2022-11-16T21:50:29.682Z,87.87
2022-11-16T21:52:49.394Z,88.04
2022-11-16T21:55:28.731Z,87.78
2022-11-16T21:58:11.695Z,87.26
2022-11-16T22:00:43.799Z,87.02
2022-11-16T22:03:19.437Z,87.48
2022-11-16T22:06:16.150Z,87.61
2022-11-16T22:08:49.533Z,87.46
2022-11-16T22:11:23.667Z,86.89
2022-11-16T22:13:56.264Z,87.31
2022-11-16T22:16:30.544Z,87.01
2022-11-16T22:19:12.343Z,86.67
2022-11-16T22:21:45.711Z,85.50
2022-11-16T22:24:18.823Z,85.75
2022-11-16T22:27:00.228Z,85.84
2022-11-16T22:29:34.254Z,85.26
2022-11-16T22:32:09.128Z,85.28
2022-11-16T22:34:41.347Z,85.52
2022-11-16T22:37:19.165Z,85.63
2022-11-16T22:39:51.385Z,84.89
2022-11-16T22:42:23.243Z,85.29
2022-11-16T22:44:55.023Z,85.67
2022-11-16T22:47:28.000Z,84.61
2022-11-16T22:50:00.051Z,84.78
2022-11-16T22:52:34.738Z,84.40
2022-11-16T22:55:10.989Z,84.11
2022-11-16T22:57:44.868Z,83.54
2022-11-16T23:00:21.479Z,83.60
2022-11-16T23:02:59.664Z,83.98
2022-11-16T23:05:32.103Z,83.22
2022-11-16T23:08:08.723Z,83.37
2022-11-16T23:10:57.239Z,83.75
2022-11-16T23:13:48.779Z,83.77
2022-11-16T23:16:21.053Z,83.89
2022-11-16T23:18:55.686Z,83.83
2022-11-16T23:21:45.859Z,83.33
2022-11-16T23:24:37.416Z,82.77
2022-11-16T23:27:28.905Z,82.81
2022-11-16T23:30:04.457Z,83.17
2022-11-16T23:32:38.449Z,82.82
2022-11-16T23:35:11.397Z,81.61
2022-11-16T23:37:56.969Z,82.31
2022-11-16T23:40:31.141Z,80.90
2022-11-16T23:43:19.186Z,81.48
2022-11-16T23:45:51.595Z,81.79
2022-11-16T23:48:24.345Z,81.84
2022-11-16T23:50:56.396Z,81.63
2022-11-16T23:53:28.076Z,80.69
2022-11-16T23:56:05.995Z,80.69
2022-11-16T23:58:38.141Z,80.85
